Chute-des-Passes, Canada
Current Conditions -  °F | °C
As of 4:00 AM on Wednesday 26 Nov 2014 (Local Time) from CYRJ Reporting Station
Few Clouds Few Clouds  
Wind Chill: 13°   Ceiling: Unl
Heat Index: 23°   Visibility: 25mi
Dew Point: 16°   Wind: 9mph
Humidity: 74%   Direction: 290°WNW
Pressure: 30.1"   Gusts: 17mph
Location:  49.87°N, 71.28°W
Report Text: CYRJ 260900Z 29008G15KT 25SM FEW035 M05/M09 A3010 RMK SC1 SLP204
Loading
Personal Weather Stations






























Interactive Weather Map New forecast layout! Learn more

10-Day Weather Forecast

Advertisements
Track Severe Weather on mobile